Flight Track Log - Related Links

Times and Time Zones

All times are in EDT time to prevent confusion due to time zone crossing. See the EGF2839 flight status page for this flight to view local times or setup timezone preferences in your user account.


Time Position Orientation Groundspeed Altitude Reporting Facility
EDT Latitude Longitude Course Direction KTS MPH feet Rate Location/Type
Fri 04:21:54 PM 32.8833 -97.0500 309° West 154 177 1,400  Level Dallas / Fort Worth TRACON
Fri 04:22:54 PM 32.8333 -97.0667 196° South 188 216 3,200 2,100 Climbing Dallas / Fort Worth TRACON
Fri 04:23:54 PM 32.7833 -97.0833 196° South 180 207 5,600 1,900 Climbing Dallas / Fort Worth TRACON
Fri 04:24:00 PM 32.8221 -97.3220 307° West  Level FlightAware Approximate
Fri 04:24:54 PM 32.7667 -97.1500 253° West 244 281 7,000  Level Dallas / Fort Worth TRACON
Fri 04:25:00 PM 32.8963 -97.4360 308° West  Level FlightAware Approximate
Fri 04:25:31 PM 32.7644 -97.2033 267° West 253 291 8,100  Level Fort Worth Center
Fri 04:26:00 PM 32.9717 -97.5491 309° West  Level FlightAware Approximate
Fri 04:26:31 PM 32.7917 -97.2750 294° West 253 291 10,100  Level Fort Worth Center
Fri 04:27:00 PM 33.0471 -97.6622 309° West  Level FlightAware Approximate
Fri 04:27:31 PM 32.8417 -97.3517 308° West 276 318 10,700  Level Fort Worth Center
Fri 04:28:31 PM 32.9003 -97.4381 309° West 319 367 11,700 1,000 Climbing Fort Worth Center
Fri 04:29:31 PM 32.9586 -97.5272 308° West 334 384 12,700 1,050 Climbing Fort Worth Center
Fri 04:30:31 PM 33.0169 -97.6192 307° West 344 396 13,800 1,200 Climbing Fort Worth Center
Fri 04:31:31 PM 33.0753 -97.7108 307° West 344 396 15,100 1,200 Climbing Fort Worth Center
Fri 04:32:31 PM 33.1144 -97.8028 297° West 339 390 16,200 1,150 Climbing Fort Worth Center
Fri 04:33:31 PM 33.1497 -97.9172 290° West 334 384 17,400 1,100 Climbing Fort Worth Center
Fri 04:34:31 PM 33.1783 -98.0117 290° West 339 390 18,400 1,150 Climbing Fort Worth Center
Fri 04:35:31 PM 33.2153 -98.1286 291° West 339 390 19,700 1,160 Climbing Fort Worth Center
Fri 04:36:30 PM 33.2481 -98.2356 290° West 339 390 20,700 1,150 Climbing Fort Worth Center
Fri 04:37:31 PM 33.2828 -98.3428 291° West 349 402 22,000 1,190 Climbing Fort Worth Center
Fri 04:38:31 PM 33.3175 -98.4500 291° West 349 402 23,100 1,050 Climbing Fort Worth Center
Fri 04:39:31 PM 33.3458 -98.5475 289° West 349 402 24,100 1,100 Climbing Fort Worth Center
Fri 04:40:31 PM 33.3783 -98.6522 290° West 349 402 25,300 1,150 Climbing Fort Worth Center
Fri 04:41:31 PM 33.4086 -98.7547 290° West 349 402 26,400 1,150 Climbing Fort Worth Center
Fri 04:42:31 PM 33.4428 -98.8622 291° West 349 402 27,600 1,150 Climbing Fort Worth Center
Fri 04:43:31 PM 33.4769 -98.9675 291° West 349 402 28,700 1,150 Climbing Fort Worth Center
Fri 04:44:31 PM 33.5069 -99.0725 289° West 343 395 29,900 1,150 Climbing Fort Worth Center
Fri 04:45:31 PM 33.5411 -99.1778 291° West 343 395 31,000 1,150 Climbing Fort Worth Center
Fri 04:46:31 PM 33.5708 -99.2808 289° West 338 389 32,200 1,150 Climbing Fort Worth Center
Fri 04:47:31 PM 33.6217 -99.3742 303° West 333 383 33,300 1,059 Climbing Fort Worth Center
Fri 04:48:30 PM 33.7258 -99.3889 353° North 322 371 34,300 850 Climbing Fort Worth Center
Fri 04:49:31 PM 33.8372 -99.3314 23° Northeast 347 399 35,000 347 Climbing Fort Worth Center
Fri 04:50:31 PM 33.9486 -99.2814 20° North 387 445 35,000  Level Fort Worth Center
Fri 04:51:31 PM 34.0703 -99.2314 19° North 421 484 35,000  Level Fort Worth Center
Fri 04:52:31 PM 34.1922 -99.1736 21° North 449 517 35,000  Level Fort Worth Center
Fri 04:53:30 PM 34.3203 -99.1233 18° North 463 533 35,000  Level Fort Worth Center
Fri 04:54:31 PM 34.4481 -99.0731 18° North 477 549 35,000  Level Fort Worth Center
Fri 04:55:31 PM 34.5742 -99.0175 20° North 477 549 35,000  Level Fort Worth Center
Fri 04:56:31 PM 34.6978 -98.9592 21° North 477 549 35,000  Level Fort Worth Center
Fri 04:57:31 PM 34.8197 -98.8956 23° Northeast 477 549 35,000  Level Fort Worth Center
Fri 04:58:31 PM 34.9006 -98.7603 54° Northeast 471 542 35,000  Level Fort Worth Center
Fri 04:59:31 PM 34.9769 -98.6147 57° Northeast 477 549 35,000  Level Fort Worth Center
Fri 05:00:31 PM 35.0533 -98.4736 56° Northeast 495 570 35,000  Level Fort Worth Center
Fri 05:01:31 PM 35.1317 -98.3300 56° Northeast 495 570 35,000  Level Fort Worth Center
Fri 05:02:31 PM 35.2078 -98.1861 57° Northeast 505 581 35,000  Level Fort Worth Center
Fri 05:03:31 PM 35.2858 -98.0392 57° Northeast 505 581 35,000  Level Fort Worth Center
Fri 05:04:31 PM 35.3636 -97.8922 57° Northeast 505 581 35,000  Level Fort Worth Center
Fri 05:06:23 PM 35.5047 -97.6219 57° Northeast 517 595 35,000  Level Kansas City Center
Fri 05:07:26 PM 35.5839 -97.4706 57° Northeast 516 594 35,000  Level Kansas City Center
Fri 05:08:26 PM 35.6617 -97.3200 58° Northeast 515 593 35,000  Level Kansas City Center
Fri 05:09:30 PM 35.7522 -97.1419 58° Northeast 509 586 35,000  Level Kansas City Center
Fri 05:10:30 PM 35.8275 -96.9956 58° Northeast 507 583 35,000  Level Kansas City Center
Fri 05:11:34 PM 35.9025 -96.8475 58° Northeast 508 585 35,000  Level Kansas City Center
Fri 05:12:34 PM 35.9786 -96.7003 57° Northeast 509 586 35,000  Level Kansas City Center
Fri 05:13:38 PM 36.0561 -96.5472 58° Northeast 506 582 35,000  Level Kansas City Center
Fri 05:14:39 PM 36.1297 -96.3989 58° Northeast 505 581 35,000  Level Kansas City Center
Fri 05:15:43 PM 36.2050 -96.2503 58° Northeast 508 585 35,000  Level Kansas City Center
Fri 05:16:44 PM 36.2794 -96.1017 58° Northeast 507 583 35,000  Level Kansas City Center
Fri 05:17:47 PM 36.3689 -95.9225 58° Northeast 507 583 35,000  Level Kansas City Center
Fri 05:18:48 PM 36.4433 -95.7722 58° Northeast 507 583 35,000  Level Kansas City Center
Fri 05:19:49 PM 36.5122 -95.6356 58° Northeast 506 582 35,000  Level Kansas City Center
Fri 05:20:53 PM 36.5861 -95.4858 58° Northeast 508 585 35,000  Level Kansas City Center
Fri 05:21:53 PM 36.6686 -95.3139 59° Northeast 507 583 35,000  Level Kansas City Center
Fri 05:22:57 PM 36.7411 -95.1628 59° Northeast 505 581 35,000  Level Kansas City Center
Fri 05:23:57 PM 36.8136 -95.0106 59° Northeast 506 582 35,000  Level Kansas City Center
Fri 05:25:01 PM 36.8872 -94.8608 58° Northeast 505 581 35,000 145 Level Kansas City Center
Fri 05:26:01 PM 36.9592 -94.7119 59° Northeast 501 577 35,300 823 Climbing Kansas City Center
Fri 05:27:05 PM 37.0417 -94.5364 59° Northeast 489 563 36,700 816 Climbing Kansas City Center
Fri 05:28:06 PM 37.1086 -94.3967 59° Northeast 473 544 37,000 145 Climbing Kansas City Center
Fri 05:29:09 PM 37.1764 -94.2542 59° Northeast 473 544 37,000  Level Kansas City Center
Fri 05:30:09 PM 37.2644 -94.1311 48° Northeast 471 542 37,000 -48 Level Kansas City Center
Fri 05:31:13 PM 37.3642 -94.0050 45° Northeast 474 545 36,900  Descending Kansas City Center
Fri 05:32:13 PM 37.4508 -93.8903 46° Northeast 458 527 37,000 48 Climbing Kansas City Center
Fri 05:33:17 PM 37.5397 -93.7694 47° Northeast 464 534 37,000  Level Kansas City Center
Fri 05:34:20 PM 37.6311 -93.6456 47° Northeast 475 547 37,000  Level Kansas City Center
Fri 05:35:20 PM 37.7242 -93.5192 47° Northeast 484 557 37,000  Level Kansas City Center
Fri 05:36:23 PM 37.8150 -93.3931 48° Northeast 484 557 37,000  Level Kansas City Center
Fri 05:37:24 PM 37.9261 -93.2406 47° Northeast 487 560 37,000  Level Kansas City Center
Fri 05:38:25 PM 38.0194 -93.1125 47° Northeast 489 563 37,000  Level Kansas City Center
Fri 05:39:29 PM 38.1136 -92.9806 48° Northeast 496 571 37,000  Level Kansas City Center
Fri 05:40:29 PM 38.2081 -92.8514 47° Northeast 495 570 37,000  Level Kansas City Center
Fri 05:41:33 PM 38.3011 -92.7197 48° Northeast 494 568 37,000  Level Kansas City Center
Fri 05:42:36 PM 38.3933 -92.5878 48° Northeast 493 567 37,000  Level Kansas City Center
Fri 05:43:37 PM 38.4867 -92.4589 47° Northeast 490 564 37,000  Level Kansas City Center
Fri 05:44:41 PM 38.5772 -92.3272 49° Northeast 489 563 37,000  Level Kansas City Center
Fri 05:45:41 PM 38.6697 -92.1958 48° Northeast 491 565 37,000  Level Kansas City Center
Fri 05:46:42 PM 38.7803 -92.0394 48° Northeast 491 565 37,000  Level Kansas City Center
Fri 05:47:46 PM 38.8706 -91.9064 49° Northeast 492 566 37,000  Level Kansas City Center
Fri 05:48:47 PM 38.9625 -91.7744 48° Northeast 492 566 37,000  Level Kansas City Center
Fri 05:49:48 PM 39.0447 -91.6567 48° Northeast 497 572 37,000  Level Kansas City Center
Fri 05:50:52 PM 39.1572 -91.4956 48° Northeast 502 578 37,000  Level Kansas City Center
Fri 05:51:52 PM 39.2500 -91.3589 49° Northeast 504 580 37,000  Level Kansas City Center
Fri 05:52:56 PM 39.3453 -91.2200 48° Northeast 511 588 37,000  Level Kansas City Center
Fri 05:53:57 PM 39.4392 -91.0814 49° Northeast 512 589 37,000  Level Kansas City Center
Fri 05:55:00 PM 39.5325 -90.9428 49° Northeast 511 588 37,000  Level Kansas City Center
Fri 05:56:01 PM 39.6264 -90.8039 49° Northeast 510 587 37,000  Level Kansas City Center
Fri 05:57:05 PM 39.7194 -90.6639 49° Northeast 510 587 37,000  Level Kansas City Center
Fri 05:58:05 PM 39.8281 -90.5000 49° Northeast 500 575 37,000  Level Kansas City Center
Fri 05:59:09 PM 39.9183 -90.3650 49° Northeast 498 573 37,000  Level Kansas City Center
Fri 05:59:43 PM 39.9714 -90.2861 49° Northeast 493 567 37,000  Level Chicago Center
Fri 06:00:45 PM 40.0589 -90.1508 50° Northeast 490 564 37,000  Level Chicago Center
Fri 06:01:47 PM 40.1464 -90.0175 49° Northeast 488 562 37,000  Level Chicago Center
Fri 06:02:49 PM 40.2331 -89.8847 49° Northeast 482 555 37,000  Level Chicago Center
Fri 06:03:51 PM 40.3369 -89.7247 50° Northeast 484 557 37,000  Level Chicago Center
Fri 06:04:53 PM 40.4228 -89.5925 50° Northeast 483 556 37,000  Level Chicago Center
Fri 06:05:56 PM 40.5081 -89.4575 50° Northeast 485 558 37,000  Level Chicago Center
Fri 06:06:58 PM 40.5947 -89.3222 50° Northeast 489 563 37,000  Level Chicago Center
Fri 06:08:00 PM 40.6819 -89.1858 50° Northeast 491 565 37,000  Level Chicago Center
Fri 06:09:02 PM 40.7869 -89.0217 50° Northeast 490 564 37,000  Level Chicago Center
Fri 06:10:04 PM 40.8742 -88.8836 50° Northeast 491 565 37,000  Level Chicago Center
Fri 06:11:06 PM 40.9653 -88.7369 51° Northeast 490 564 37,000  Level Chicago Center
Fri 06:12:08 PM 41.0519 -88.5983 50° Northeast 491 565 37,000  Level Chicago Center
Fri 06:13:10 PM 41.1389 -88.4619 50° Northeast 489 563 37,000 -290 Level Chicago Center
Fri 06:14:12 PM 41.2236 -88.3244 51° Northeast 487 560 36,400 -871 Descending Chicago Center
Fri 06:15:14 PM 41.3244 -88.1625 50° Northeast 479 551 35,200 -919 Descending Chicago Center
Fri 06:16:16 PM 41.4103 -88.0239 50° Northeast 490 564 34,500 -919 Descending Chicago Center
Fri 06:17:18 PM 41.4897 -87.8908 51° Northeast 494 568 33,300 -1,355 Descending Chicago Center
Fri 06:18:20 PM 41.5894 -87.7286 51° Northeast 478 550 31,700 -1,500 Descending Chicago Center
Fri 06:19:22 PM 41.6708 -87.5928 51° Northeast 472 543 30,200 -1,355 Descending Chicago Center
Fri 06:20:24 PM 41.7525 -87.4569 51° Northeast 471 542 28,900 -1,536 Descending Chicago Center
Fri 06:21:27 PM 41.8361 -87.3192 51° Northeast 477 549 27,000 -1,872 Descending Chicago Center
Fri 06:22:29 PM 41.9183 -87.1825 51° Northeast 473 544 25,000 -2,129 Descending Chicago Center
Fri 06:23:31 PM 42.0136 -87.0206 52° Northeast 460 529 22,600 -1,935 Descending Chicago Center
Fri 06:24:33 PM 42.0911 -86.8908 51° Northeast 448 516 21,000 -1,500 Descending Chicago Center
Fri 06:25:35 PM 42.1656 -86.7636 52° Northeast 437 503 19,500 -1,355 Descending Chicago Center
Fri 06:26:37 PM 42.2339 -86.6486 51° Northeast 430 495 18,200 -1,258 Descending Chicago Center
Fri 06:27:39 PM 42.3144 -86.5106 52° Northeast 412 474 16,900 -1,258 Descending Chicago Center
Fri 06:28:41 PM 42.3811 -86.3928 53° Northeast 400 460 15,600 -1,355 Descending Chicago Center
Fri 06:29:43 PM 42.4475 -86.2794 52° Northeast 388 447 14,100 -1,403 Descending Chicago Center
Fri 06:30:45 PM 42.5150 -86.1642 52° Northeast 391 450 12,700 -1,065 Descending Chicago Center
Fri 06:31:47 PM 42.5953 -86.0233 52° Northeast 395 455 11,900 -774 Descending Chicago Center
Fri 06:32:49 PM 42.6622 -85.9067 52° Northeast 396 456 11,100 -484 Descending Chicago Center
Fri 06:33:51 PM 42.7097 -85.7758 64° Northeast 394 453 10,900 -339 Descending Chicago Center
Fri 06:34:53 PM 42.7431 -85.6447 71° East 380 437 10,400 -1,065 Descending Chicago Center
Fri 06:35:55 PM 42.7822 -85.5214 67° East 306 352 8,700 -1,935 Descending Chicago Center
Fri 06:36:57 PM 42.8064 -85.4158 73° East 297 342 6,400 -2,226 Descending Chicago Center

Login

Don't have an account? Register now (free) for customized features, flight alerts, and more!